sensor_id;sensor_type;location;lat;lon;timestamp;temperature;humidity
25436;DHT22;13363;52.772;-3.890;2023-02-01T00:01:34;9.90;99.90
25436;DHT22;13363;52.772;-3.890;2023-02-01T00:04:00;9.90;99.90
25436;DHT22;13363;52.772;-3.890;2023-02-01T00:06:29;9.90;99.90
25436;DHT22;13363;52.772;-3.890;2023-02-01T00:08:56;9.90;99.90
25436;DHT22;13363;52.772;-3.890;2023-02-01T00:11:24;9.90;99.90
25436;DHT22;13363;52.772;-3.890;2023-02-01T00:13:52;9.90;99.90
25436;DHT22;13363;52.772;-3.890;2023-02-01T00:16:24;9.90;99.90
25436;DHT22;13363;52.772;-3.890;2023-02-01T00:18:51;9.90;99.90
25436;DHT22;13363;52.772;-3.890;2023-02-01T00:21:20;9.80;99.90
25436;DHT22;13363;52.772;-3.890;2023-02-01T00:23:46;9.80;99.90
25436;DHT22;13363;52.772;-3.890;2023-02-01T00:26:23;9.80;99.90
25436;DHT22;13363;52.772;-3.890;2023-02-01T00:28:51;9.80;99.90
25436;DHT22;13363;52.772;-3.890;2023-02-01T00:31:17;9.80;99.90
25436;DHT22;13363;52.772;-3.890;2023-02-01T00:33:42;9.90;99.90
25436;DHT22;13363;52.772;-3.890;2023-02-01T00:36:12;9.90;99.90
25436;DHT22;13363;52.772;-3.890;2023-02-01T00:38:38;9.90;99.90
25436;DHT22;13363;52.772;-3.890;2023-02-01T00:41:05;9.80;99.90
25436;DHT22;13363;52.772;-3.890;2023-02-01T00:43:32;9.80;99.90
25436;DHT22;13363;52.772;-3.890;2023-02-01T00:45:58;9.80;99.90
25436;DHT22;13363;52.772;-3.890;2023-02-01T00:48:25;9.70;99.90
25436;DHT22;13363;52.772;-3.890;2023-02-01T00:50:52;9.70;99.90
25436;DHT22;13363;52.772;-3.890;2023-02-01T00:53:18;9.70;99.90
25436;DHT22;13363;52.772;-3.890;2023-02-01T00:55:47;9.70;99.90
25436;DHT22;13363;52.772;-3.890;2023-02-01T00:58:14;9.70;99.90
25436;DHT22;13363;52.772;-3.890;2023-02-01T01:00:40;9.80;99.90
25436;DHT22;13363;52.772;-3.890;2023-02-01T01:03:06;9.70;99.90
25436;DHT22;13363;52.772;-3.890;2023-02-01T01:05:57;9.60;99.90
25436;DHT22;13363;52.772;-3.890;2023-02-01T01:08:23;9.60;99.90
25436;DHT22;13363;52.772;-3.890;2023-02-01T01:10:49;9.60;99.90
25436;DHT22;13363;52.772;-3.890;2023-02-01T01:13:15;9.60;99.90
25436;DHT22;13363;52.772;-3.890;2023-02-01T01:15:41;9.60;99.90
25436;DHT22;13363;52.772;-3.890;2023-02-01T01:18:07;9.60;99.90
25436;DHT22;13363;52.772;-3.890;2023-02-01T01:20:39;9.60;99.90
25436;DHT22;13363;52.772;-3.890;2023-02-01T01:23:06;9.60;99.90
25436;DHT22;13363;52.772;-3.890;2023-02-01T01:25:32;9.60;99.90
25436;DHT22;13363;52.772;-3.890;2023-02-01T01:28:02;9.70;99.90
25436;DHT22;13363;52.772;-3.890;2023-02-01T01:30:28;9.70;99.90
25436;DHT22;13363;52.772;-3.890;2023-02-01T01:32:53;9.70;99.90
25436;DHT22;13363;52.772;-3.890;2023-02-01T01:35:19;9.60;99.90
25436;DHT22;13363;52.772;-3.890;2023-02-01T01:37:45;9.70;99.90
25436;DHT22;13363;52.772;-3.890;2023-02-01T01:40:11;10.20;99.90
25436;DHT22;13363;52.772;-3.890;2023-02-01T01:42:38;9.60;99.90
25436;DHT22;13363;52.772;-3.890;2023-02-01T01:47:47;9.60;99.90
25436;DHT22;13363;52.772;-3.890;2023-02-01T01:50:17;9.60;99.90
25436;DHT22;13363;52.772;-3.890;2023-02-01T01:52:47;9.60;99.90
25436;DHT22;13363;52.772;-3.890;2023-02-01T01:55:15;9.60;99.90
25436;DHT22;13363;52.772;-3.890;2023-02-01T01:57:44;9.60;99.90
25436;DHT22;13363;52.772;-3.890;2023-02-01T02:00:15;9.60;99.90
25436;DHT22;13363;52.772;-3.890;2023-02-01T02:02:44;9.50;99.90
25436;DHT22;13363;52.772;-3.890;2023-02-01T02:05:12;9.50;99.90
25436;DHT22;13363;52.772;-3.890;2023-02-01T02:07:41;9.50;99.90
25436;DHT22;13363;52.772;-3.890;2023-02-01T02:10:10;9.50;99.90
25436;DHT22;13363;52.772;-3.890;2023-02-01T02:12:41;9.50;99.90
25436;DHT22;13363;52.772;-3.890;2023-02-01T02:15:08;9.40;99.90
25436;DHT22;13363;52.772;-3.890;2023-02-01T02:25:56;9.60;99.90
25436;DHT22;13363;52.772;-3.890;2023-02-01T02:34:28;9.60;99.90
25436;DHT22;13363;52.772;-3.890;2023-02-01T02:40:06;9.70;99.90
25436;DHT22;13363;52.772;-3.890;2023-02-01T02:42:54;9.70;99.90
25436;DHT22;13363;52.772;-3.890;2023-02-01T02:45:54;9.70;99.90
25436;DHT22;13363;52.772;-3.890;2023-02-01T02:48:47;9.70;99.90
25436;DHT22;13363;52.772;-3.890;2023-02-01T02:54:25;9.60;99.90
25436;DHT22;13363;52.772;-3.890;2023-02-01T02:57:16;9.50;99.90
25436;DHT22;13363;52.772;-3.890;2023-02-01T03:00:04;9.50;99.90
25436;DHT22;13363;52.772;-3.890;2023-02-01T03:02:50;9.50;99.90
25436;DHT22;13363;52.772;-3.890;2023-02-01T03:05:39;9.60;99.90
25436;DHT22;13363;52.772;-3.890;2023-02-01T03:08:12;9.70;99.90
25436;DHT22;13363;52.772;-3.890;2023-02-01T03:10:53;9.70;99.90
25436;DHT22;13363;52.772;-3.890;2023-02-01T03:13:35;9.70;99.90
25436;DHT22;13363;52.772;-3.890;2023-02-01T03:16:24;9.70;99.90
25436;DHT22;13363;52.772;-3.890;2023-02-01T03:18:55;9.70;99.90
25436;DHT22;13363;52.772;-3.890;2023-02-01T03:21:35;9.80;99.90
25436;DHT22;13363;52.772;-3.890;2023-02-01T03:24:51;9.70;99.90
25436;DHT22;13363;52.772;-3.890;2023-02-01T03:27:04;9.70;99.90
25436;DHT22;13363;52.772;-3.890;2023-02-01T03:29:38;9.80;99.90
25436;DHT22;13363;52.772;-3.890;2023-02-01T03:32:05;9.80;99.90
25436;DHT22;13363;52.772;-3.890;2023-02-01T03:34:31;9.70;99.90
25436;DHT22;13363;52.772;-3.890;2023-02-01T03:37:04;9.80;99.90
25436;DHT22;13363;52.772;-3.890;2023-02-01T03:42:03;9.80;99.90
25436;DHT22;13363;52.772;-3.890;2023-02-01T03:44:54;9.80;99.90
25436;DHT22;13363;52.772;-3.890;2023-02-01T03:47:26;9.80;99.90
25436;DHT22;13363;52.772;-3.890;2023-02-01T03:49:57;9.80;99.90
25436;DHT22;13363;52.772;-3.890;2023-02-01T03:52:35;9.80;99.90
25436;DHT22;13363;52.772;-3.890;2023-02-01T03:55:05;9.80;99.90
25436;DHT22;13363;52.772;-3.890;2023-02-01T03:57:35;9.90;99.90
25436;DHT22;13363;52.772;-3.890;2023-02-01T04:00:06;9.80;99.90
25436;DHT22;13363;52.772;-3.890;2023-02-01T04:02:33;9.80;99.90
25436;DHT22;13363;52.772;-3.890;2023-02-01T04:05:00;9.80;99.90
25436;DHT22;13363;52.772;-3.890;2023-02-01T04:07:25;9.80;99.90
25436;DHT22;13363;52.772;-3.890;2023-02-01T04:09:51;9.80;99.90
25436;DHT22;13363;52.772;-3.890;2023-02-01T04:12:17;9.80;99.90
25436;DHT22;13363;52.772;-3.890;2023-02-01T04:14:43;9.80;99.90
25436;DHT22;13363;52.772;-3.890;2023-02-01T04:17:08;9.80;99.90
25436;DHT22;13363;52.772;-3.890;2023-02-01T04:19:34;9.80;99.90
25436;DHT22;13363;52.772;-3.890;2023-02-01T04:22:00;9.80;99.90
25436;DHT22;13363;52.772;-3.890;2023-02-01T04:24:26;9.80;99.90
25436;DHT22;13363;52.772;-3.890;2023-02-01T04:26:51;9.80;99.90
25436;DHT22;13363;52.772;-3.890;2023-02-01T04:29:17;9.80;99.90
25436;DHT22;13363;52.772;-3.890;2023-02-01T04:31:43;9.80;99.90
25436;DHT22;13363;52.772;-3.890;2023-02-01T04:34:09;9.80;99.90
25436;DHT22;13363;52.772;-3.890;2023-02-01T04:36:35;9.80;99.90
25436;DHT22;13363;52.772;-3.890;2023-02-01T04:39:01;9.80;99.90
25436;DHT22;13363;52.772;-3.890;2023-02-01T04:41:26;9.90;99.90
25436;DHT22;13363;52.772;-3.890;2023-02-01T04:43:52;9.80;99.90
25436;DHT22;13363;52.772;-3.890;2023-02-01T04:46:18;9.80;99.90
25436;DHT22;13363;52.772;-3.890;2023-02-01T04:48:44;9.80;99.90
25436;DHT22;13363;52.772;-3.890;2023-02-01T04:51:10;9.80;99.90
25436;DHT22;13363;52.772;-3.890;2023-02-01T04:53:36;9.80;99.90
25436;DHT22;13363;52.772;-3.890;2023-02-01T04:56:02;9.80;99.90
25436;DHT22;13363;52.772;-3.890;2023-02-01T04:58:28;9.80;99.90
25436;DHT22;13363;52.772;-3.890;2023-02-01T05:00:54;9.80;99.90
25436;DHT22;13363;52.772;-3.890;2023-02-01T05:03:20;9.80;99.90
25436;DHT22;13363;52.772;-3.890;2023-02-01T05:05:48;9.80;99.90
25436;DHT22;13363;52.772;-3.890;2023-02-01T05:08:14;9.80;99.90
25436;DHT22;13363;52.772;-3.890;2023-02-01T05:10:40;9.80;99.90
25436;DHT22;13363;52.772;-3.890;2023-02-01T05:13:07;9.80;99.90
25436;DHT22;13363;52.772;-3.890;2023-02-01T05:15:51;9.80;99.90
25436;DHT22;13363;52.772;-3.890;2023-02-01T05:18:17;9.80;99.90
25436;DHT22;13363;52.772;-3.890;2023-02-01T05:20:43;9.80;99.90
25436;DHT22;13363;52.772;-3.890;2023-02-01T05:23:09;9.80;99.90
25436;DHT22;13363;52.772;-3.890;2023-02-01T05:25:34;9.90;99.90
25436;DHT22;13363;52.772;-3.890;2023-02-01T05:28:00;9.90;99.90
25436;DHT22;13363;52.772;-3.890;2023-02-01T05:30:26;9.90;99.90
25436;DHT22;13363;52.772;-3.890;2023-02-01T05:32:53;9.90;99.90
25436;DHT22;13363;52.772;-3.890;2023-02-01T05:35:19;9.90;99.90
25436;DHT22;13363;52.772;-3.890;2023-02-01T05:37:45;10.00;99.90
25436;DHT22;13363;52.772;-3.890;2023-02-01T05:40:11;10.00;99.90
25436;DHT22;13363;52.772;-3.890;2023-02-01T05:42:37;10.00;99.90
25436;DHT22;13363;52.772;-3.890;2023-02-01T05:45:03;10.00;99.90
25436;DHT22;13363;52.772;-3.890;2023-02-01T05:47:31;10.00;99.90
25436;DHT22;13363;52.772;-3.890;2023-02-01T05:49:57;10.00;99.90
25436;DHT22;13363;52.772;-3.890;2023-02-01T05:52:22;10.00;99.90
25436;DHT22;13363;52.772;-3.890;2023-02-01T05:54:49;9.90;99.90
25436;DHT22;13363;52.772;-3.890;2023-02-01T05:57:14;9.90;99.90
25436;DHT22;13363;52.772;-3.890;2023-02-01T05:59:40;9.90;99.90
25436;DHT22;13363;52.772;-3.890;2023-02-01T06:02:09;9.90;99.90
25436;DHT22;13363;52.772;-3.890;2023-02-01T06:04:35;9.90;99.90
25436;DHT22;13363;52.772;-3.890;2023-02-01T06:07:01;9.90;99.90
25436;DHT22;13363;52.772;-3.890;2023-02-01T06:09:27;10.00;99.90
25436;DHT22;13363;52.772;-3.890;2023-02-01T06:11:54;10.00;99.90
25436;DHT22;13363;52.772;-3.890;2023-02-01T06:14:20;10.00;99.90
25436;DHT22;13363;52.772;-3.890;2023-02-01T06:16:46;9.90;99.90
25436;DHT22;13363;52.772;-3.890;2023-02-01T06:19:12;9.90;99.90
25436;DHT22;13363;52.772;-3.890;2023-02-01T06:21:38;10.00;99.90
25436;DHT22;13363;52.772;-3.890;2023-02-01T06:24:04;10.00;99.90
25436;DHT22;13363;52.772;-3.890;2023-02-01T06:26:31;10.00;99.90
25436;DHT22;13363;52.772;-3.890;2023-02-01T06:28:57;9.90;99.90
25436;DHT22;13363;52.772;-3.890;2023-02-01T06:31:23;10.00;99.90
25436;DHT22;13363;52.772;-3.890;2023-02-01T06:33:51;9.90;99.90
25436;DHT22;13363;52.772;-3.890;2023-02-01T06:36:17;9.90;99.90
25436;DHT22;13363;52.772;-3.890;2023-02-01T06:38:46;9.90;99.90
25436;DHT22;13363;52.772;-3.890;2023-02-01T06:41:12;9.90;99.90
25436;DHT22;13363;52.772;-3.890;2023-02-01T06:43:38;10.00;99.90
25436;DHT22;13363;52.772;-3.890;2023-02-01T06:46:07;9.90;99.90
25436;DHT22;13363;52.772;-3.890;2023-02-01T06:48:33;9.90;99.90
25436;DHT22;13363;52.772;-3.890;2023-02-01T06:50:59;9.80;99.90
25436;DHT22;13363;52.772;-3.890;2023-02-01T06:53:26;9.80;99.90
25436;DHT22;13363;52.772;-3.890;2023-02-01T06:55:57;9.80;99.90
25436;DHT22;13363;52.772;-3.890;2023-02-01T06:58:23;9.80;99.90
25436;DHT22;13363;52.772;-3.890;2023-02-01T07:00:49;9.80;99.90
25436;DHT22;13363;52.772;-3.890;2023-02-01T07:03:16;9.80;99.90
25436;DHT22;13363;52.772;-3.890;2023-02-01T07:05:42;9.80;99.90
25436;DHT22;13363;52.772;-3.890;2023-02-01T07:08:08;9.90;99.90
25436;DHT22;13363;52.772;-3.890;2023-02-01T07:10:34;9.90;99.90
25436;DHT22;13363;52.772;-3.890;2023-02-01T07:13:00;9.90;99.90
25436;DHT22;13363;52.772;-3.890;2023-02-01T07:15:26;9.90;99.90
25436;DHT22;13363;52.772;-3.890;2023-02-01T07:17:54;9.90;99.90
25436;DHT22;13363;52.772;-3.890;2023-02-01T07:20:20;10.00;99.90
25436;DHT22;13363;52.772;-3.890;2023-02-01T07:22:46;9.90;99.90
25436;DHT22;13363;52.772;-3.890;2023-02-01T07:25:12;9.90;99.90
25436;DHT22;13363;52.772;-3.890;2023-02-01T07:27:38;10.00;99.90
25436;DHT22;13363;52.772;-3.890;2023-02-01T07:30:05;10.00;99.90
25436;DHT22;13363;52.772;-3.890;2023-02-01T07:32:31;10.00;99.90
25436;DHT22;13363;52.772;-3.890;2023-02-01T07:34:57;10.00;99.90
25436;DHT22;13363;52.772;-3.890;2023-02-01T07:37:23;10.00;99.90
25436;DHT22;13363;52.772;-3.890;2023-02-01T07:39:52;10.10;99.90
25436;DHT22;13363;52.772;-3.890;2023-02-01T07:42:18;10.10;99.90
25436;DHT22;13363;52.772;-3.890;2023-02-01T07:44:44;10.10;99.90
25436;DHT22;13363;52.772;-3.890;2023-02-01T07:47:10;10.10;99.90
25436;DHT22;13363;52.772;-3.890;2023-02-01T07:49:36;10.20;99.90
25436;DHT22;13363;52.772;-3.890;2023-02-01T07:52:02;10.10;99.90
25436;DHT22;13363;52.772;-3.890;2023-02-01T07:54:27;10.10;99.90
25436;DHT22;13363;52.772;-3.890;2023-02-01T07:56:53;10.20;99.90
25436;DHT22;13363;52.772;-3.890;2023-02-01T07:59:19;10.20;99.90
25436;DHT22;13363;52.772;-3.890;2023-02-01T08:01:45;10.20;99.90
25436;DHT22;13363;52.772;-3.890;2023-02-01T08:04:12;10.20;99.90
25436;DHT22;13363;52.772;-3.890;2023-02-01T08:06:38;10.20;99.90
25436;DHT22;13363;52.772;-3.890;2023-02-01T08:09:05;10.10;99.90
25436;DHT22;13363;52.772;-3.890;2023-02-01T08:11:32;10.20;99.90
25436;DHT22;13363;52.772;-3.890;2023-02-01T08:13:59;10.20;99.90
25436;DHT22;13363;52.772;-3.890;2023-02-01T08:16:25;10.10;99.90
25436;DHT22;13363;52.772;-3.890;2023-02-01T08:18:51;10.20;99.90
25436;DHT22;13363;52.772;-3.890;2023-02-01T08:21:20;10.20;99.90
25436;DHT22;13363;52.772;-3.890;2023-02-01T08:23:48;10.20;99.90
25436;DHT22;13363;52.772;-3.890;2023-02-01T08:26:25;10.20;99.90
25436;DHT22;13363;52.772;-3.890;2023-02-01T08:28:54;10.20;99.90
25436;DHT22;13363;52.772;-3.890;2023-02-01T08:31:21;10.20;99.90
25436;DHT22;13363;52.772;-3.890;2023-02-01T08:33:53;10.30;99.90
25436;DHT22;13363;52.772;-3.890;2023-02-01T08:36:20;10.30;99.90
25436;DHT22;13363;52.772;-3.890;2023-02-01T08:38:46;10.30;99.90
25436;DHT22;13363;52.772;-3.890;2023-02-01T08:41:14;10.30;99.90
25436;DHT22;13363;52.772;-3.890;2023-02-01T08:43:41;10.30;99.90
25436;DHT22;13363;52.772;-3.890;2023-02-01T08:46:07;10.40;99.90
25436;DHT22;13363;52.772;-3.890;2023-02-01T08:48:34;10.30;99.90
25436;DHT22;13363;52.772;-3.890;2023-02-01T08:51:05;10.30;99.90
25436;DHT22;13363;52.772;-3.890;2023-02-01T08:53:31;10.30;99.90
25436;DHT22;13363;52.772;-3.890;2023-02-01T08:55:57;10.40;99.90
25436;DHT22;13363;52.772;-3.890;2023-02-01T08:58:23;10.40;99.90
25436;DHT22;13363;52.772;-3.890;2023-02-01T09:00:49;10.40;99.90
25436;DHT22;13363;52.772;-3.890;2023-02-01T09:03:15;10.50;99.90
25436;DHT22;13363;52.772;-3.890;2023-02-01T09:05:41;10.40;99.90
25436;DHT22;13363;52.772;-3.890;2023-02-01T09:08:07;10.50;99.90
25436;DHT22;13363;52.772;-3.890;2023-02-01T09:10:34;10.40;99.90
25436;DHT22;13363;52.772;-3.890;2023-02-01T09:13:01;10.40;99.90
25436;DHT22;13363;52.772;-3.890;2023-02-01T09:15:26;10.50;99.90
25436;DHT22;13363;52.772;-3.890;2023-02-01T09:17:52;10.40;99.90
25436;DHT22;13363;52.772;-3.890;2023-02-01T09:20:18;10.40;99.90
25436;DHT22;13363;52.772;-3.890;2023-02-01T09:22:46;10.40;99.90
25436;DHT22;13363;52.772;-3.890;2023-02-01T09:25:11;10.40;99.90
25436;DHT22;13363;52.772;-3.890;2023-02-01T09:27:37;10.40;99.90
25436;DHT22;13363;52.772;-3.890;2023-02-01T09:30:04;10.50;99.90
25436;DHT22;13363;52.772;-3.890;2023-02-01T09:32:30;10.50;99.90
25436;DHT22;13363;52.772;-3.890;2023-02-01T09:34:56;10.50;99.90
25436;DHT22;13363;52.772;-3.890;2023-02-01T09:37:22;10.50;99.90
25436;DHT22;13363;52.772;-3.890;2023-02-01T09:39:47;10.50;99.90
25436;DHT22;13363;52.772;-3.890;2023-02-01T09:42:26;10.60;99.90
25436;DHT22;13363;52.772;-3.890;2023-02-01T09:47:31;10.60;99.90
25436;DHT22;13363;52.772;-3.890;2023-02-01T09:52:40;10.50;99.90
25436;DHT22;13363;52.772;-3.890;2023-02-01T09:55:15;10.60;99.90
25436;DHT22;13363;52.772;-3.890;2023-02-01T09:57:58;10.60;99.90
25436;DHT22;13363;52.772;-3.890;2023-02-01T10:00:37;10.60;99.90
25436;DHT22;13363;52.772;-3.890;2023-02-01T10:03:04;10.60;99.90
25436;DHT22;13363;52.772;-3.890;2023-02-01T10:05:57;10.60;99.90
25436;DHT22;13363;52.772;-3.890;2023-02-01T10:22:47;10.60;99.90
25436;DHT22;13363;52.772;-3.890;2023-02-01T10:25:23;10.60;99.90
25436;DHT22;13363;52.772;-3.890;2023-02-01T10:27:51;10.60;99.90
25436;DHT22;13363;52.772;-3.890;2023-02-01T10:30:23;10.70;99.90
25436;DHT22;13363;52.772;-3.890;2023-02-01T10:32:56;10.70;99.90
25436;DHT22;13363;52.772;-3.890;2023-02-01T10:35:30;10.70;99.90
25436;DHT22;13363;52.772;-3.890;2023-02-01T10:38:05;10.70;99.90
25436;DHT22;13363;52.772;-3.890;2023-02-01T10:40:37;10.70;99.90
25436;DHT22;13363;52.772;-3.890;2023-02-01T10:43:03;10.70;99.90
25436;DHT22;13363;52.772;-3.890;2023-02-01T10:45:33;10.80;99.90
25436;DHT22;13363;52.772;-3.890;2023-02-01T10:48:00;10.70;99.90
25436;DHT22;13363;52.772;-3.890;2023-02-01T10:50:38;10.80;99.90
25436;DHT22;13363;52.772;-3.890;2023-02-01T10:53:10;10.80;99.90
25436;DHT22;13363;52.772;-3.890;2023-02-01T10:55:41;10.90;99.90
25436;DHT22;13363;52.772;-3.890;2023-02-01T10:58:20;10.90;99.90
25436;DHT22;13363;52.772;-3.890;2023-02-01T11:05:57;11.10;99.90
25436;DHT22;13363;52.772;-3.890;2023-02-01T11:08:24;11.10;99.90
25436;DHT22;13363;52.772;-3.890;2023-02-01T11:11:03;11.10;99.90
25436;DHT22;13363;52.772;-3.890;2023-02-01T11:13:32;11.20;99.90
25436;DHT22;13363;52.772;-3.890;2023-02-01T11:16:02;11.20;99.90
25436;DHT22;13363;52.772;-3.890;2023-02-01T11:18:31;11.10;99.90
25436;DHT22;13363;52.772;-3.890;2023-02-01T11:20:59;11.10;99.90
25436;DHT22;13363;52.772;-3.890;2023-02-01T11:23:26;11.10;99.90
25436;DHT22;13363;52.772;-3.890;2023-02-01T11:25:57;11.20;99.90
25436;DHT22;13363;52.772;-3.890;2023-02-01T11:28:30;11.20;99.90
25436;DHT22;13363;52.772;-3.890;2023-02-01T11:31:02;11.20;99.90
25436;DHT22;13363;52.772;-3.890;2023-02-01T11:33:34;11.10;99.90
25436;DHT22;13363;52.772;-3.890;2023-02-01T11:36:12;11.20;99.90
25436;DHT22;13363;52.772;-3.890;2023-02-01T11:39:07;11.20;99.90
25436;DHT22;13363;52.772;-3.890;2023-02-01T11:41:31;11.20;99.90
25436;DHT22;13363;52.772;-3.890;2023-02-01T11:44:00;11.20;99.90
25436;DHT22;13363;52.772;-3.890;2023-02-01T11:46:33;11.20;99.90
25436;DHT22;13363;52.772;-3.890;2023-02-01T11:57:27;11.30;99.90
25436;DHT22;13363;52.772;-3.890;2023-02-01T12:14:26;11.20;99.90
25436;DHT22;13363;52.772;-3.890;2023-02-01T12:24:48;11.30;99.90
25436;DHT22;13363;52.772;-3.890;2023-02-01T12:38:51;10.80;99.90
25436;DHT22;13363;52.772;-3.890;2023-02-01T12:47:51;10.60;99.90
25436;DHT22;13363;52.772;-3.890;2023-02-01T12:52:53;10.70;99.90
25436;DHT22;13363;52.772;-3.890;2023-02-01T12:55:23;10.80;99.90
25436;DHT22;13363;52.772;-3.890;2023-02-01T12:57:57;10.80;99.90
25436;DHT22;13363;52.772;-3.890;2023-02-01T13:00:32;10.80;99.90
25436;DHT22;13363;52.772;-3.890;2023-02-01T13:11:40;11.00;99.90
25436;DHT22;13363;52.772;-3.890;2023-02-01T13:14:33;11.10;99.90
25436;DHT22;13363;52.772;-3.890;2023-02-01T13:17:32;11.10;99.90
25436;DHT22;13363;52.772;-3.890;2023-02-01T13:20:31;11.10;99.90
25436;DHT22;13363;52.772;-3.890;2023-02-01T13:25:43;11.10;99.90
25436;DHT22;13363;52.772;-3.890;2023-02-01T13:39:43;10.90;99.90
25436;DHT22;13363;52.772;-3.890;2023-02-01T13:42:17;10.90;99.90
25436;DHT22;13363;52.772;-3.890;2023-02-01T13:44:48;11.00;99.90
25436;DHT22;13363;52.772;-3.890;2023-02-01T13:47:39;11.00;99.90
25436;DHT22;13363;52.772;-3.890;2023-02-01T13:50:36;11.00;99.90
25436;DHT22;13363;52.772;-3.890;2023-02-01T13:53:17;11.00;99.90
25436;DHT22;13363;52.772;-3.890;2023-02-01T13:55:46;11.10;99.90
25436;DHT22;13363;52.772;-3.890;2023-02-01T13:58:30;11.10;99.90
25436;DHT22;13363;52.772;-3.890;2023-02-01T14:03:55;11.10;99.90
25436;DHT22;13363;52.772;-3.890;2023-02-01T14:14:48;11.20;99.90
25436;DHT22;13363;52.772;-3.890;2023-02-01T14:17:31;11.20;99.90
25436;DHT22;13363;52.772;-3.890;2023-02-01T14:23:20;11.30;99.90
25436;DHT22;13363;52.772;-3.890;2023-02-01T14:26:00;11.30;99.90
25436;DHT22;13363;52.772;-3.890;2023-02-01T14:28:29;11.30;99.90
25436;DHT22;13363;52.772;-3.890;2023-02-01T14:30:57;11.30;99.90
25436;DHT22;13363;52.772;-3.890;2023-02-01T14:33:25;11.30;99.90
25436;DHT22;13363;52.772;-3.890;2023-02-01T14:36:24;11.30;99.90
25436;DHT22;13363;52.772;-3.890;2023-02-01T14:38:51;11.30;99.90
25436;DHT22;13363;52.772;-3.890;2023-02-01T14:41:29;11.30;99.90
25436;DHT22;13363;52.772;-3.890;2023-02-01T14:49:34;11.30;99.90
25436;DHT22;13363;52.772;-3.890;2023-02-01T14:52:06;11.30;99.90
25436;DHT22;13363;52.772;-3.890;2023-02-01T14:54:35;11.30;99.90
25436;DHT22;13363;52.772;-3.890;2023-02-01T14:57:02;11.30;99.90
25436;DHT22;13363;52.772;-3.890;2023-02-01T14:59:31;11.30;99.90
25436;DHT22;13363;52.772;-3.890;2023-02-01T15:01:59;11.40;99.90
25436;DHT22;13363;52.772;-3.890;2023-02-01T15:04:27;11.40;99.90
25436;DHT22;13363;52.772;-3.890;2023-02-01T15:06:58;11.40;99.90
25436;DHT22;13363;52.772;-3.890;2023-02-01T15:09:33;11.40;99.90
25436;DHT22;13363;52.772;-3.890;2023-02-01T15:15:16;11.40;99.90
25436;DHT22;13363;52.772;-3.890;2023-02-01T15:17:50;11.40;99.90
25436;DHT22;13363;52.772;-3.890;2023-02-01T15:20:28;11.30;99.90
25436;DHT22;13363;52.772;-3.890;2023-02-01T15:23:05;11.30;99.90
25436;DHT22;13363;52.772;-3.890;2023-02-01T15:25:37;11.30;99.90
25436;DHT22;13363;52.772;-3.890;2023-02-01T15:28:04;11.40;99.90
25436;DHT22;13363;52.772;-3.890;2023-02-01T15:30:33;11.40;99.90
25436;DHT22;13363;52.772;-3.890;2023-02-01T15:36:06;11.40;99.90
25436;DHT22;13363;52.772;-3.890;2023-02-01T15:38:36;11.40;99.90
25436;DHT22;13363;52.772;-3.890;2023-02-01T15:41:07;11.40;99.90
25436;DHT22;13363;52.772;-3.890;2023-02-01T15:43:47;11.40;99.90
25436;DHT22;13363;52.772;-3.890;2023-02-01T15:46:20;11.40;99.90
25436;DHT22;13363;52.772;-3.890;2023-02-01T15:48:49;11.40;99.90
25436;DHT22;13363;52.772;-3.890;2023-02-01T15:51:22;11.40;99.90
25436;DHT22;13363;52.772;-3.890;2023-02-01T15:54:01;11.40;99.90
25436;DHT22;13363;52.772;-3.890;2023-02-01T15:56:35;11.40;99.90
25436;DHT22;13363;52.772;-3.890;2023-02-01T15:59:04;11.30;99.90
25436;DHT22;13363;52.772;-3.890;2023-02-01T16:01:36;11.30;99.90
25436;DHT22;13363;52.772;-3.890;2023-02-01T16:06:49;11.30;99.90
25436;DHT22;13363;52.772;-3.890;2023-02-01T16:09:17;11.30;99.90
25436;DHT22;13363;52.772;-3.890;2023-02-01T16:11:57;11.30;99.90
25436;DHT22;13363;52.772;-3.890;2023-02-01T16:14:24;11.30;99.90
25436;DHT22;13363;52.772;-3.890;2023-02-01T16:16:50;11.30;99.90
25436;DHT22;13363;52.772;-3.890;2023-02-01T16:19:17;11.30;99.90
25436;DHT22;13363;52.772;-3.890;2023-02-01T16:21:43;11.30;99.90
25436;DHT22;13363;52.772;-3.890;2023-02-01T16:24:09;11.30;99.90
25436;DHT22;13363;52.772;-3.890;2023-02-01T16:26:35;11.30;99.90
25436;DHT22;13363;52.772;-3.890;2023-02-01T16:29:01;11.30;99.90
25436;DHT22;13363;52.772;-3.890;2023-02-01T16:31:35;11.20;99.90
25436;DHT22;13363;52.772;-3.890;2023-02-01T16:34:02;11.20;99.90
25436;DHT22;13363;52.772;-3.890;2023-02-01T16:36:28;11.10;99.90
25436;DHT22;13363;52.772;-3.890;2023-02-01T16:38:55;11.10;99.90
25436;DHT22;13363;52.772;-3.890;2023-02-01T16:41:23;11.10;99.90
25436;DHT22;13363;52.772;-3.890;2023-02-01T16:43:54;11.10;99.90
25436;DHT22;13363;52.772;-3.890;2023-02-01T16:46:23;11.20;99.90
25436;DHT22;13363;52.772;-3.890;2023-02-01T16:48:58;11.20;99.90
25436;DHT22;13363;52.772;-3.890;2023-02-01T16:51:28;11.20;99.90
25436;DHT22;13363;52.772;-3.890;2023-02-01T16:53:54;11.20;99.90
25436;DHT22;13363;52.772;-3.890;2023-02-01T16:56:30;11.20;99.90
25436;DHT22;13363;52.772;-3.890;2023-02-01T16:58:56;11.20;99.90
25436;DHT22;13363;52.772;-3.890;2023-02-01T17:01:23;11.20;99.90
25436;DHT22;13363;52.772;-3.890;2023-02-01T17:03:49;11.20;99.90
25436;DHT22;13363;52.772;-3.890;2023-02-01T17:06:18;11.20;99.90
25436;DHT22;13363;52.772;-3.890;2023-02-01T17:08:47;11.20;99.90
25436;DHT22;13363;52.772;-3.890;2023-02-01T17:11:15;11.20;99.90
25436;DHT22;13363;52.772;-3.890;2023-02-01T17:13:41;11.20;99.90
25436;DHT22;13363;52.772;-3.890;2023-02-01T17:16:26;11.20;99.90
25436;DHT22;13363;52.772;-3.890;2023-02-01T17:19:05;11.20;99.90
25436;DHT22;13363;52.772;-3.890;2023-02-01T17:21:41;11.10;99.90
25436;DHT22;13363;52.772;-3.890;2023-02-01T17:24:12;11.10;99.90
25436;DHT22;13363;52.772;-3.890;2023-02-01T17:26:38;11.10;99.90
25436;DHT22;13363;52.772;-3.890;2023-02-01T17:29:04;11.20;99.90
25436;DHT22;13363;52.772;-3.890;2023-02-01T17:31:41;11.20;99.90
25436;DHT22;13363;52.772;-3.890;2023-02-01T17:34:09;11.20;99.90
25436;DHT22;13363;52.772;-3.890;2023-02-01T17:36:35;11.20;99.90
25436;DHT22;13363;52.772;-3.890;2023-02-01T17:39:02;11.10;99.90
25436;DHT22;13363;52.772;-3.890;2023-02-01T17:41:28;11.10;99.90
25436;DHT22;13363;52.772;-3.890;2023-02-01T17:43:54;11.10;99.90
25436;DHT22;13363;52.772;-3.890;2023-02-01T17:46:20;11.00;99.90
25436;DHT22;13363;52.772;-3.890;2023-02-01T17:48:52;10.90;99.90
25436;DHT22;13363;52.772;-3.890;2023-02-01T17:51:21;11.00;99.90
25436;DHT22;13363;52.772;-3.890;2023-02-01T17:53:48;11.00;99.90
25436;DHT22;13363;52.772;-3.890;2023-02-01T17:56:17;11.00;99.90
25436;DHT22;13363;52.772;-3.890;2023-02-01T17:58:44;11.00;99.90
25436;DHT22;13363;52.772;-3.890;2023-02-01T18:01:16;11.00;99.90
25436;DHT22;13363;52.772;-3.890;2023-02-01T18:03:42;11.00;99.90
25436;DHT22;13363;52.772;-3.890;2023-02-01T18:06:17;11.80;99.90
25436;DHT22;13363;52.772;-3.890;2023-02-01T18:08:43;10.90;99.90
25436;DHT22;13363;52.772;-3.890;2023-02-01T18:11:16;10.90;99.90
25436;DHT22;13363;52.772;-3.890;2023-02-01T18:13:42;11.00;99.90